createdAt,value
2023-06-04T00:00:00.897Z,58.46
2023-06-04T00:02:29.974Z,58.52
2023-06-04T00:04:56.726Z,58.46
2023-06-04T00:07:23.502Z,58.46
2023-06-04T00:09:55.401Z,58.44
2023-06-04T00:12:22.570Z,58.50
2023-06-04T00:14:51.706Z,58.43
2023-06-04T00:17:18.433Z,58.59
2023-06-04T00:19:47.284Z,58.50
2023-06-04T00:22:16.146Z,58.39
2023-06-04T00:24:45.033Z,58.44
2023-06-04T00:27:13.912Z,58.44
2023-06-04T00:29:43.385Z,58.45
2023-06-04T00:32:10.410Z,58.32
2023-06-04T00:34:37.146Z,58.58
2023-06-04T00:37:06.976Z,58.46
2023-06-04T00:39:36.081Z,58.43
2023-06-04T00:42:02.859Z,58.45
2023-06-04T00:44:29.612Z,58.55
2023-06-04T00:47:01.360Z,58.47
2023-06-04T00:49:28.161Z,58.45
2023-06-04T00:51:57.001Z,58.44
2023-06-04T00:54:26.067Z,58.33
2023-06-04T00:56:52.845Z,58.37
2023-06-04T00:59:21.790Z,58.55
2023-06-04T01:02:10.711Z,58.38
2023-06-04T01:04:46.040Z,58.49
2023-06-04T01:07:14.405Z,58.45
2023-06-04T01:09:43.446Z,58.40
2023-06-04T01:12:11.280Z,58.42
2023-06-04T01:14:43.610Z,58.49
2023-06-04T01:17:38.814Z,58.37
2023-06-04T01:20:34.382Z,58.37
2023-06-04T01:23:13.075Z,58.29
2023-06-04T01:25:45.322Z,58.41
2023-06-04T01:28:15.739Z,58.42
2023-06-04T01:30:47.094Z,58.41
2023-06-04T01:33:20.524Z,58.42
2023-06-04T01:35:49.452Z,58.52
2023-06-04T01:38:18.578Z,58.40
2023-06-04T01:40:45.687Z,58.42
2023-06-04T01:43:12.469Z,58.35
2023-06-04T01:45:41.371Z,58.40
2023-06-04T01:48:08.285Z,58.42
2023-06-04T01:50:35.058Z,58.67
2023-06-04T01:53:01.783Z,58.27
2023-06-04T01:55:30.859Z,58.45
2023-06-04T01:57:57.696Z,58.53
2023-06-04T02:00:24.786Z,58.41
2023-06-04T02:02:51.626Z,58.35
2023-06-04T02:05:20.825Z,58.29
2023-06-04T02:07:52.163Z,58.39
2023-06-04T02:10:20.081Z,58.44
2023-06-04T02:12:57.592Z,58.48
2023-06-04T02:15:27.004Z,58.43
2023-06-04T02:17:59.519Z,58.35
2023-06-04T02:20:29.275Z,58.50
2023-06-04T02:22:56.252Z,58.37
2023-06-04T02:25:23.849Z,58.41
2023-06-04T02:27:50.793Z,58.38
2023-06-04T02:30:18.320Z,58.40
2023-06-04T02:32:45.675Z,58.33
2023-06-04T02:35:19.329Z,58.49
2023-06-04T02:37:48.341Z,58.33
2023-06-04T02:40:17.343Z,58.29
2023-06-04T02:42:44.077Z,58.45
2023-06-04T02:45:11.617Z,58.44
2023-06-04T02:47:38.686Z,58.42
2023-06-04T02:50:05.963Z,58.37
2023-06-04T02:52:34.111Z,58.48
2023-06-04T02:55:01.005Z,58.41
2023-06-04T02:57:30.026Z,58.37
2023-06-04T02:59:59.042Z,58.59
2023-06-04T03:02:26.113Z,58.41
2023-06-04T03:04:56.050Z,58.37
2023-06-04T03:07:24.000Z,58.42
2023-06-04T03:09:51.348Z,58.35
2023-06-04T03:12:19.577Z,58.35
2023-06-04T03:14:48.467Z,58.45
2023-06-04T03:17:15.242Z,58.49
2023-06-04T03:19:42.621Z,58.26
2023-06-04T03:22:10.144Z,58.40
2023-06-04T03:24:38.674Z,58.39
2023-06-04T03:27:08.332Z,58.36
2023-06-04T03:29:35.609Z,58.40
2023-06-04T03:32:06.972Z,58.40
2023-06-04T03:34:35.734Z,58.40
2023-06-04T03:37:05.054Z,58.31
2023-06-04T03:39:31.960Z,58.62
2023-06-04T03:42:01.021Z,58.48
2023-06-04T03:44:30.163Z,58.31
2023-06-04T03:46:59.112Z,58.39
2023-06-04T03:49:28.142Z,58.37
2023-06-04T03:51:57.082Z,58.45
2023-06-04T03:54:25.976Z,58.36
2023-06-04T03:56:52.832Z,58.34
2023-06-04T03:59:19.560Z,58.43
2023-06-04T04:01:50.956Z,58.38
2023-06-04T04:04:19.935Z,58.42
2023-06-04T04:06:46.693Z,58.14
2023-06-04T04:09:13.581Z,58.40
2023-06-04T04:11:40.297Z,58.36
2023-06-04T04:14:09.199Z,58.24
2023-06-04T04:16:36.037Z,58.50
2023-06-04T04:19:04.939Z,58.54
2023-06-04T04:21:31.637Z,58.41
2023-06-04T04:24:01.015Z,58.52
2023-06-04T04:26:32.495Z,58.26
2023-06-04T04:28:59.326Z,58.43
2023-06-04T04:31:28.735Z,58.37
2023-06-04T04:33:58.777Z,58.54
2023-06-04T04:36:25.542Z,58.38
2023-06-04T04:38:56.028Z,58.38
2023-06-04T04:41:25.181Z,58.35
2023-06-04T04:43:53.878Z,58.54
2023-06-04T04:46:20.714Z,58.31
2023-06-04T04:48:47.586Z,58.34
2023-06-04T04:51:14.306Z,58.39
2023-06-04T04:53:41.071Z,58.39
2023-06-04T04:56:10.067Z,58.34
2023-06-04T04:58:36.777Z,58.33
2023-06-04T05:01:03.489Z,58.25
2023-06-04T05:03:32.573Z,58.39
2023-06-04T05:05:59.621Z,58.43
2023-06-04T05:08:26.308Z,58.27
2023-06-04T05:10:53.458Z,58.43
2023-06-04T05:13:22.319Z,58.35
2023-06-04T05:15:51.195Z,58.30
2023-06-04T05:18:23.183Z,58.37
2023-06-04T05:20:50.255Z,58.46
2023-06-04T05:23:17.040Z,58.32
2023-06-04T05:25:45.910Z,58.39
2023-06-04T05:28:13.972Z,58.31
2023-06-04T05:30:42.481Z,58.28
2023-06-04T05:33:18.882Z,58.28
2023-06-04T05:35:53.090Z,58.25
2023-06-04T05:38:26.784Z,58.28
2023-06-04T05:40:57.652Z,58.28
2023-06-04T05:43:26.536Z,58.27
2023-06-04T05:45:53.257Z,58.26
2023-06-04T05:48:22.059Z,58.37
2023-06-04T05:50:48.906Z,58.34
2023-06-04T05:53:15.647Z,58.29
2023-06-04T05:55:42.458Z,58.39
2023-06-04T05:58:09.207Z,58.30
2023-06-04T06:00:35.978Z,58.26
2023-06-04T06:03:07.672Z,58.37
2023-06-04T06:05:34.651Z,58.39
2023-06-04T06:08:01.488Z,58.19
2023-06-04T06:10:29.255Z,58.22
2023-06-04T06:12:56.037Z,58.19
2023-06-04T06:15:22.860Z,58.24
2023-06-04T06:17:50.878Z,58.27
2023-06-04T06:20:19.061Z,58.18
2023-06-04T06:22:48.779Z,58.33
2023-06-04T06:25:20.557Z,58.17
2023-06-04T06:27:49.468Z,58.13
2023-06-04T06:30:18.310Z,58.30
2023-06-04T06:32:45.026Z,58.30
2023-06-04T06:35:11.959Z,58.23
2023-06-04T06:37:43.217Z,58.14
2023-06-04T06:40:10.730Z,58.25
2023-06-04T06:42:37.466Z,58.25
2023-06-04T06:45:04.467Z,58.30
2023-06-04T06:47:31.389Z,58.30
2023-06-04T06:50:00.237Z,58.23
2023-06-04T06:52:27.246Z,58.21
2023-06-04T06:54:56.221Z,58.18
2023-06-04T06:57:25.068Z,58.33
2023-06-04T06:59:55.029Z,58.19
2023-06-04T07:02:22.190Z,58.18
2023-06-04T07:04:49.278Z,58.29
2023-06-04T07:07:17.890Z,58.37
2023-06-04T07:09:45.599Z,58.21
2023-06-04T07:12:14.757Z,58.15
2023-06-04T07:14:41.579Z,58.26
2023-06-04T07:17:09.016Z,58.18
2023-06-04T07:19:40.550Z,58.19
2023-06-04T07:22:07.389Z,58.22
2023-06-04T07:24:34.168Z,58.13
2023-06-04T07:27:03.437Z,58.20
2023-06-04T07:29:32.810Z,58.14
2023-06-04T07:31:59.521Z,58.13
2023-06-04T07:34:26.392Z,58.15
2023-06-04T07:36:55.491Z,58.20
2023-06-04T07:39:24.513Z,58.14
2023-06-04T07:41:54.829Z,58.19
2023-06-04T07:44:24.003Z,58.14
2023-06-04T07:46:52.851Z,58.15
2023-06-04T07:49:19.562Z,58.16
2023-06-04T07:51:49.077Z,58.13
2023-06-04T07:54:15.712Z,58.06
2023-06-04T07:56:42.447Z,58.13
2023-06-04T07:59:09.125Z,58.20
2023-06-04T08:01:35.896Z,58.04
2023-06-04T08:04:03.017Z,58.17
2023-06-04T08:06:29.849Z,58.14
2023-06-04T08:08:56.541Z,58.15
2023-06-04T08:11:26.706Z,58.25
2023-06-04T08:13:55.727Z,58.07
2023-06-04T08:16:22.647Z,58.14
2023-06-04T08:18:49.444Z,58.25
2023-06-04T08:21:29.293Z,58.03
2023-06-04T08:23:58.226Z,58.07
2023-06-04T08:26:30.111Z,58.03
2023-06-04T08:28:57.114Z,58.03
2023-06-04T08:31:23.845Z,58.13
2023-06-04T08:33:50.780Z,57.98
2023-06-04T08:36:17.543Z,58.00
2023-06-04T08:38:47.187Z,58.13
2023-06-04T08:41:31.703Z,58.05
2023-06-04T08:44:02.690Z,58.03
2023-06-04T08:46:30.202Z,58.10
2023-06-04T08:49:07.775Z,58.16
2023-06-04T08:51:38.268Z,58.17
2023-06-04T08:54:08.613Z,58.10
2023-06-04T08:56:38.114Z,58.17
2023-06-04T08:59:08.734Z,58.18
2023-06-04T09:01:38.565Z,58.17
2023-06-04T09:04:08.775Z,58.22
2023-06-04T09:06:38.838Z,58.00
2023-06-04T09:09:08.381Z,58.11
2023-06-04T09:11:37.231Z,58.06
2023-06-04T09:14:05.888Z,58.02
2023-06-04T09:16:38.861Z,58.05
2023-06-04T09:19:05.643Z,58.05
2023-06-04T09:21:34.451Z,58.03
2023-06-04T09:24:01.400Z,58.01
2023-06-04T09:26:28.177Z,58.10
2023-06-04T09:28:56.643Z,57.90
2023-06-04T09:31:28.002Z,57.94
2023-06-04T09:33:54.908Z,58.00
2023-06-04T09:36:23.708Z,58.00
2023-06-04T09:38:50.672Z,57.75
2023-06-04T09:41:18.361Z,57.86
2023-06-04T09:43:45.068Z,57.92
2023-06-04T09:46:18.134Z,57.88
2023-06-04T09:48:48.225Z,57.70
2023-06-04T09:51:21.105Z,57.81
2023-06-04T09:53:58.118Z,57.79
2023-06-04T09:56:25.006Z,57.83
2023-06-04T09:58:54.109Z,57.87
2023-06-04T10:01:23.182Z,57.84
2023-06-04T10:03:50.185Z,57.75
2023-06-04T10:06:19.480Z,57.75
2023-06-04T10:08:46.916Z,57.76
2023-06-04T10:11:15.073Z,57.62
2023-06-04T10:13:42.729Z,57.83
2023-06-04T10:16:13.107Z,57.77
2023-06-04T10:18:50.446Z,57.78
2023-06-04T10:21:19.412Z,57.80
2023-06-04T10:23:46.551Z,57.87
2023-06-04T10:26:16.692Z,57.75
2023-06-04T10:28:45.760Z,57.62
2023-06-04T10:31:12.655Z,57.68
2023-06-04T10:33:40.287Z,57.70
2023-06-04T10:36:18.919Z,57.56
2023-06-04T10:38:56.498Z,57.68
2023-06-04T10:41:26.174Z,57.73
2023-06-04T10:43:53.882Z,57.78
2023-06-04T10:46:21.361Z,57.67
2023-06-04T10:48:50.613Z,57.61
2023-06-04T10:51:38.456Z,57.65
2023-06-04T10:54:05.368Z,57.60
2023-06-04T10:56:33.402Z,57.60
2023-06-04T10:59:03.242Z,57.63
2023-06-04T11:01:31.962Z,57.63
2023-06-04T11:03:59.190Z,57.74
2023-06-04T11:06:29.163Z,57.60
2023-06-04T11:09:06.467Z,57.57
2023-06-04T11:11:35.438Z,57.58
2023-06-04T11:14:14.112Z,57.32
2023-06-04T11:16:43.101Z,57.55
2023-06-04T11:19:09.905Z,57.51
2023-06-04T11:21:39.308Z,57.62
2023-06-04T11:24:06.473Z,57.43
2023-06-04T11:26:40.302Z,57.40
2023-06-04T11:29:17.484Z,57.49
2023-06-04T11:31:45.617Z,57.47
2023-06-04T11:34:15.119Z,57.51
2023-06-04T11:36:43.964Z,57.62
2023-06-04T11:39:11.546Z,57.56
2023-06-04T11:41:41.228Z,57.63
2023-06-04T11:44:10.037Z,57.68
2023-06-04T11:46:41.125Z,57.63
2023-06-04T11:49:16.782Z,57.55
2023-06-04T11:51:50.192Z,57.64
2023-06-04T11:54:17.550Z,57.57
2023-06-04T11:56:47.511Z,57.66
2023-06-04T11:59:14.787Z,57.74
2023-06-04T12:01:42.287Z,57.72
2023-06-04T12:04:16.320Z,57.68
2023-06-04T12:07:20.355Z,57.83
2023-06-04T12:09:49.514Z,57.75
2023-06-04T12:12:16.537Z,57.78
2023-06-04T12:14:46.191Z,57.87
2023-06-04T12:17:13.176Z,57.53
2023-06-04T12:19:49.995Z,57.82
2023-06-04T12:22:16.754Z,57.98
2023-06-04T12:24:55.703Z,57.89
2023-06-04T12:27:29.405Z,57.93
2023-06-04T12:30:02.727Z,57.92
2023-06-04T12:32:29.812Z,57.96
2023-06-04T12:34:56.751Z,58.00
2023-06-04T12:37:23.795Z,57.92
2023-06-04T12:39:54.874Z,57.89
2023-06-04T12:42:21.953Z,57.87
2023-06-04T12:44:51.123Z,57.88
2023-06-04T12:47:20.107Z,57.84
2023-06-04T12:49:47.018Z,57.93
2023-06-04T12:52:15.403Z,57.84
2023-06-04T12:54:43.350Z,57.83
2023-06-04T12:57:12.413Z,57.91
2023-06-04T12:59:39.279Z,57.93
2023-06-04T13:02:06.355Z,57.98
2023-06-04T13:04:33.133Z,58.02
2023-06-04T13:07:02.842Z,58.05
2023-06-04T13:09:29.905Z,58.05
2023-06-04T13:11:57.192Z,58.00
2023-06-04T13:14:23.936Z,57.95
2023-06-04T13:16:52.781Z,58.12
2023-06-04T13:19:21.752Z,58.00
2023-06-04T13:21:48.826Z,57.97
2023-06-04T13:24:16.801Z,58.11
2023-06-04T13:26:45.935Z,57.99
2023-06-04T13:29:13.424Z,58.14
2023-06-04T13:31:41.006Z,57.26
2023-06-04T13:34:26.480Z,55.79
2023-06-04T13:36:57.386Z,55.45
2023-06-04T13:39:24.142Z,55.64
2023-06-04T13:41:50.847Z,55.19
2023-06-04T13:44:18.287Z,55.17
2023-06-04T13:46:47.275Z,55.11
2023-06-04T13:49:14.015Z,55.13
2023-06-04T13:51:40.736Z,55.30
2023-06-04T13:54:07.603Z,55.39
2023-06-04T13:56:34.989Z,55.21
2023-06-04T13:59:01.793Z,55.31
2023-06-04T14:01:28.501Z,55.24
2023-06-04T14:03:55.669Z,55.22
2023-06-04T14:06:22.817Z,54.97
2023-06-04T14:08:51.675Z,54.93
2023-06-04T14:11:19.155Z,54.87
2023-06-04T14:13:48.055Z,54.86
2023-06-04T14:16:15.964Z,55.00
2023-06-04T14:18:42.814Z,54.80
2023-06-04T14:21:09.936Z,54.54
2023-06-04T14:23:36.971Z,54.37
2023-06-04T14:26:05.920Z,54.32
2023-06-04T14:28:34.816Z,54.01
2023-06-04T14:31:01.478Z,53.79
2023-06-04T14:33:28.333Z,54.00
2023-06-04T14:35:55.051Z,53.47
2023-06-04T14:38:22.473Z,53.50
2023-06-04T14:40:49.151Z,53.29
2023-06-04T14:43:16.035Z,53.75
2023-06-04T14:45:49.982Z,54.25
2023-06-04T14:48:17.053Z,54.12
2023-06-04T14:50:48.019Z,54.79
2023-06-04T14:53:14.886Z,54.68
2023-06-04T14:55:41.739Z,54.54
2023-06-04T14:58:12.459Z,54.58
2023-06-04T15:00:39.378Z,54.65
2023-06-04T15:03:06.449Z,54.71
2023-06-04T15:05:33.487Z,54.72
2023-06-04T15:08:00.429Z,54.58
2023-06-04T15:10:27.810Z,55.07
2023-06-04T15:12:57.291Z,55.05
2023-06-04T15:15:24.257Z,54.81
2023-06-04T15:17:51.131Z,54.64
2023-06-04T15:20:20.148Z,54.84
2023-06-04T15:22:49.062Z,54.57
2023-06-04T15:25:15.899Z,54.88
2023-06-04T15:27:42.703Z,54.85
2023-06-04T15:30:09.709Z,54.93
2023-06-04T15:32:36.944Z,54.96
2023-06-04T15:35:07.202Z,55.10
2023-06-04T15:37:34.239Z,55.15
2023-06-04T15:40:02.357Z,54.86
2023-06-04T15:42:29.107Z,55.08
2023-06-04T15:44:55.822Z,54.72
2023-06-04T15:47:24.880Z,54.73
2023-06-04T15:49:51.620Z,54.76
2023-06-04T15:52:20.523Z,55.17
2023-06-04T15:54:47.577Z,55.12
2023-06-04T15:57:14.639Z,54.82
2023-06-04T15:59:42.257Z,54.94
2023-06-04T16:02:11.600Z,54.98
2023-06-04T16:04:38.613Z,55.12
2023-06-04T16:07:08.078Z,55.13
2023-06-04T16:09:39.998Z,54.96
2023-06-04T16:12:07.443Z,55.08
2023-06-04T16:14:34.236Z,55.34
2023-06-04T16:17:04.595Z,55.24
2023-06-04T16:19:34.357Z,55.35
2023-06-04T16:22:01.378Z,55.35
2023-06-04T16:24:28.145Z,55.17
2023-06-04T16:26:55.208Z,55.18
2023-06-04T16:29:22.105Z,55.07
2023-06-04T16:31:48.941Z,55.05
2023-06-04T16:34:15.967Z,55.06
2023-06-04T16:36:43.423Z,55.14
2023-06-04T16:39:12.326Z,55.21
2023-06-04T16:41:41.189Z,55.28
2023-06-04T16:44:08.142Z,55.55
2023-06-04T16:46:35.452Z,55.58
2023-06-04T16:49:04.381Z,55.56
2023-06-04T16:51:33.293Z,55.62
2023-06-04T16:54:00.001Z,55.63
2023-06-04T16:56:27.167Z,55.93
2023-06-04T16:58:54.056Z,55.88
2023-06-04T17:01:21.126Z,55.30
2023-06-04T17:03:48.044Z,55.41
2023-06-04T17:06:15.411Z,55.47
2023-06-04T17:08:44.221Z,55.48
2023-06-04T17:11:11.761Z,55.23
2023-06-04T17:13:40.583Z,55.23
2023-06-04T17:16:07.877Z,55.36
2023-06-04T17:18:36.943Z,55.04
2023-06-04T17:21:03.762Z,55.11
2023-06-04T17:23:31.863Z,54.94
2023-06-04T17:26:00.616Z,55.00
2023-06-04T17:28:29.435Z,55.02
2023-06-04T17:30:56.425Z,55.22
2023-06-04T17:33:23.130Z,54.63
2023-06-04T17:35:50.067Z,54.98
2023-06-04T17:38:19.400Z,54.97
2023-06-04T17:40:46.335Z,55.20
2023-06-04T17:43:13.068Z,55.18
2023-06-04T17:45:42.908Z,55.17
2023-06-04T17:48:11.942Z,55.25
2023-06-04T17:50:40.728Z,55.46
2023-06-04T17:53:07.449Z,55.59
2023-06-04T17:55:34.597Z,55.78
2023-06-04T17:58:03.622Z,56.16
2023-06-04T18:00:30.679Z,56.01
2023-06-04T18:02:59.816Z,56.25
2023-06-04T18:05:26.711Z,56.34
2023-06-04T18:07:53.440Z,56.51
2023-06-04T18:10:22.018Z,56.47
2023-06-04T18:12:48.897Z,56.70
2023-06-04T18:15:16.185Z,56.40
2023-06-04T18:17:43.095Z,56.37
2023-06-04T18:20:13.574Z,56.35
2023-06-04T18:22:40.425Z,56.41
2023-06-04T18:25:09.875Z,56.54
2023-06-04T18:27:39.190Z,56.60
2023-06-04T18:30:06.452Z,56.49
2023-06-04T18:32:33.315Z,56.68
2023-06-04T18:35:00.101Z,56.72
2023-06-04T18:37:29.238Z,56.54
2023-06-04T18:39:55.963Z,56.48
2023-06-04T18:42:30.841Z,56.51
2023-06-04T18:45:00.912Z,56.55
2023-06-04T18:47:27.846Z,56.64
2023-06-04T18:49:56.776Z,56.84
2023-06-04T18:52:23.762Z,57.08
2023-06-04T18:54:50.468Z,57.15
2023-06-04T18:57:17.200Z,57.35
2023-06-04T18:59:48.581Z,57.31
2023-06-04T19:02:15.372Z,57.58
2023-06-04T19:04:42.088Z,57.75
2023-06-04T19:07:09.031Z,57.80
2023-06-04T19:09:36.214Z,57.90
2023-06-04T19:12:03.010Z,57.90
2023-06-04T19:14:29.656Z,58.02
2023-06-04T19:16:56.432Z,57.82
2023-06-04T19:19:23.159Z,58.04
2023-06-04T19:21:53.060Z,58.19
2023-06-04T19:24:22.392Z,58.19
2023-06-04T19:26:51.829Z,58.19
2023-06-04T19:29:19.574Z,58.32
2023-06-04T19:31:49.923Z,58.26
2023-06-04T19:34:18.990Z,58.38
2023-06-04T19:36:45.837Z,58.35
2023-06-04T19:39:12.604Z,58.30
2023-06-04T19:41:39.344Z,58.56
2023-06-04T19:44:06.292Z,58.60
2023-06-04T19:46:33.040Z,58.42
2023-06-04T19:49:00.130Z,58.56
2023-06-04T19:51:30.154Z,58.57
2023-06-04T19:53:57.047Z,58.51
2023-06-04T19:56:23.903Z,58.73
2023-06-04T19:58:52.792Z,58.69
2023-06-04T20:01:19.817Z,58.76
2023-06-04T20:03:46.678Z,58.69
2023-06-04T20:06:16.607Z,58.96
2023-06-04T20:08:44.370Z,58.92
2023-06-04T20:11:16.939Z,58.85
2023-06-04T20:13:46.244Z,58.55
2023-06-04T20:16:15.512Z,58.83
2023-06-04T20:18:46.996Z,59.01
2023-06-04T20:21:13.736Z,58.97
2023-06-04T20:23:40.604Z,59.18
2023-06-04T20:26:08.966Z,58.98
2023-06-04T20:28:36.103Z,58.98
2023-06-04T20:31:05.040Z,58.87
2023-06-04T20:33:36.008Z,59.03
2023-06-04T20:36:05.015Z,59.02
2023-06-04T20:38:34.662Z,60.01
2023-06-04T20:41:01.337Z,60.21
2023-06-04T20:43:28.090Z,60.49
2023-06-04T20:45:57.249Z,60.67
2023-06-04T20:48:26.217Z,60.75
2023-06-04T20:50:55.016Z,61.44
2023-06-04T20:53:24.009Z,61.43
2023-06-04T20:55:50.878Z,61.40
2023-06-04T20:58:20.573Z,61.36
2023-06-04T21:00:49.501Z,61.58
2023-06-04T21:03:16.254Z,62.01
2023-06-04T21:05:45.170Z,61.62
2023-06-04T21:08:11.849Z,61.93
2023-06-04T21:10:41.206Z,62.15
2023-06-04T21:13:07.969Z,61.53
2023-06-04T21:15:36.766Z,61.43
2023-06-04T21:18:06.650Z,61.46
2023-06-04T21:20:33.585Z,61.05
2023-06-04T21:23:02.508Z,61.19
2023-06-04T21:25:31.458Z,61.02
2023-06-04T21:27:58.150Z,61.25
2023-06-04T21:30:24.926Z,60.99
2023-06-04T21:32:51.730Z,61.09
2023-06-04T21:35:23.812Z,61.55
2023-06-04T21:37:50.578Z,61.74
2023-06-04T21:40:17.274Z,61.78
2023-06-04T21:42:43.950Z,61.58
2023-06-04T21:45:11.568Z,61.03
2023-06-04T21:47:38.947Z,60.68
2023-06-04T21:50:06.071Z,61.07
2023-06-04T21:52:32.734Z,61.16
2023-06-04T21:54:59.953Z,60.97
2023-06-04T21:57:26.652Z,61.35
2023-06-04T21:59:55.479Z,61.55
2023-06-04T22:02:22.246Z,61.52
2023-06-04T22:04:49.738Z,61.31
2023-06-04T22:07:18.740Z,60.93
2023-06-04T22:09:45.606Z,60.66
2023-06-04T22:12:12.243Z,61.01
2023-06-04T22:14:41.059Z,61.71
2023-06-04T22:17:09.959Z,60.89
2023-06-04T22:19:37.220Z,60.86
2023-06-04T22:22:06.586Z,60.91
2023-06-04T22:24:33.302Z,60.96
2023-06-04T22:27:00.037Z,61.17
2023-06-04T22:29:29.411Z,60.80
2023-06-04T22:32:00.860Z,60.80
2023-06-04T22:34:27.552Z,60.76
2023-06-04T22:36:56.551Z,60.74
2023-06-04T22:39:23.226Z,60.70
2023-06-04T22:41:50.024Z,60.80
2023-06-04T22:44:16.694Z,60.50
2023-06-04T22:46:43.542Z,60.76
2023-06-04T22:49:10.259Z,60.50
2023-06-04T22:51:39.220Z,60.45
2023-06-04T22:54:05.922Z,60.27
2023-06-04T22:56:34.816Z,60.52
2023-06-04T22:59:01.601Z,60.25
2023-06-04T23:01:28.473Z,60.30
2023-06-04T23:03:55.253Z,60.32
2023-06-04T23:06:24.104Z,60.15
2023-06-04T23:08:52.924Z,60.35
2023-06-04T23:11:20.658Z,60.31
2023-06-04T23:13:50.190Z,60.19
2023-06-04T23:16:16.972Z,60.36
2023-06-04T23:18:45.838Z,60.29
2023-06-04T23:21:14.758Z,60.26
2023-06-04T23:23:41.504Z,60.24
2023-06-04T23:26:10.490Z,60.38
2023-06-04T23:28:37.188Z,60.34
2023-06-04T23:31:03.923Z,60.28
2023-06-04T23:33:30.546Z,60.13
2023-06-04T23:35:57.312Z,60.00
2023-06-04T23:38:26.126Z,60.02
2023-06-04T23:40:52.976Z,59.97
2023-06-04T23:43:21.801Z,60.16
2023-06-04T23:45:48.690Z,60.01
2023-06-04T23:48:17.587Z,59.99
2023-06-04T23:50:46.580Z,59.86
2023-06-04T23:53:13.264Z,59.87
2023-06-04T23:55:40.027Z,59.72
2023-06-04T23:58:25.764Z,59.53
